Time;durP1;ratioP1;P1;durP2;ratioP2;P2;SDS_P1;SDS_P2;PMS_P1;PMS_P2;Temp;Humidity;BMP_temperature;BMP_pressure;BME280_temperature;BME280_humidity;BME280_pressure;Samples;Min_cycle;Max_cycle;Signal;HPM_P1;HPM_P2
2023/02/01 00:00:03;;;;;;;20.57;11.43;;;;;;;4.66;100.00;101194.09;682299;28;1443;-62
2023/02/01 00:00:25;;;;;;;22.85;11.00;;;;;;;4.64;100.00;101192.28;681835;28;1260;-64
2023/02/01 00:00:45;;;;;;;18.77;10.25;;;;;;;4.64;100.00;101193.19;683711;28;4464;-62
2023/02/01 00:01:08;;;;;;;18.43;10.73;;;;;;;4.64;100.00;101198.38;688423;28;1076;-62
2023/02/01 00:01:28;;;;;;;19.48;11.35;;;;;;;4.66;100.00;101194.09;694402;28;1246;-63
2023/02/01 00:01:48;;;;;;;19.90;10.98;;;;;;;4.73;100.00;101200.34;695233;28;1175;-63
2023/02/01 00:02:09;;;;;;;20.70;10.60;;;;;;;4.71;100.00;101200.28;698442;28;1075;-63
2023/02/01 00:02:29;;;;;;;19.52;10.50;;;;;;;4.72;100.00;101196.88;696408;28;1150;-62
2023/02/01 00:02:50;;;;;;;20.87;10.80;;;;;;;4.80;100.00;101198.78;697635;28;911;-63
2023/02/01 00:03:12;;;;;;;20.65;10.60;;;;;;;4.78;100.00;101201.34;697185;28;1196;-62
2023/02/01 00:03:33;;;;;;;19.05;10.07;;;;;;;4.82;100.00;101205.78;697344;28;1316;-62
2023/02/01 00:03:53;;;;;;;19.65;10.48;;;;;;;4.78;100.00;101206.53;692865;28;4450;-62
2023/02/01 00:04:14;;;;;;;20.35;10.82;;;;;;;4.72;100.00;101202.06;691246;28;1259;-62
2023/02/01 00:04:34;;;;;;;22.53;11.47;;;;;;;4.76;100.00;101208.19;690500;28;1386;-62
2023/02/01 00:04:55;;;;;;;19.25;10.27;;;;;;;4.72;100.00;101206.34;690459;28;1223;-61
2023/02/01 00:05:15;;;;;;;17.70;10.30;;;;;;;4.70;100.00;101205.44;687990;28;2230;-63
2023/02/01 00:05:35;;;;;;;20.20;10.60;;;;;;;4.66;100.00;101211.38;691435;28;2233;-61
2023/02/01 00:05:59;;;;;;;19.70;10.48;;;;;;;4.67;100.00;101203.63;695364;28;1470;-62
2023/02/01 00:06:20;;;;;;;20.02;10.40;;;;;;;4.73;100.00;101208.97;697835;28;1373;-62
2023/02/01 00:06:40;;;;;;;21.58;10.40;;;;;;;4.73;100.00;101206.38;697768;28;4515;-63
2023/02/01 00:07:01;;;;;;;19.07;10.73;;;;;;;4.86;100.00;101206.72;698112;28;1168;-62
2023/02/01 00:07:21;;;;;;;20.60;10.70;;;;;;;4.82;100.00;101212.66;697556;28;1380;-62
2023/02/01 00:07:41;;;;;;;20.73;10.55;;;;;;;4.77;100.00;101210.81;696450;28;1225;-62
2023/02/01 00:08:02;;;;;;;22.20;10.37;;;;;;;4.75;100.00;101211.63;694109;28;1394;-62
2023/02/01 00:08:22;;;;;;;20.73;10.48;;;;;;;4.71;100.00;101217.56;693893;28;1512;-62
2023/02/01 00:08:43;;;;;;;20.37;10.50;;;;;;;4.71;100.00;101213.25;692763;28;1182;-63
2023/02/01 00:09:04;;;;;;;19.20;10.40;;;;;;;4.70;100.00;101208.88;691899;28;1203;-63
2023/02/01 00:09:24;;;;;;;21.42;10.35;;;;;;;4.69;100.00;101216.63;692644;28;1192;-62
2023/02/01 00:09:44;;;;;;;20.47;10.40;;;;;;;4.69;100.00;101217.50;691888;28;4467;-62
2023/02/01 00:10:06;;;;;;;20.80;11.05;;;;;;;4.75;100.00;101215.09;694481;28;1914;-62
2023/02/01 00:10:26;;;;;;;20.58;10.70;;;;;;;4.80;100.00;101222.09;694826;28;1088;-62
2023/02/01 00:10:47;;;;;;;17.08;10.30;;;;;;;4.80;100.00;101214.34;698396;28;1174;-62
2023/02/01 00:11:09;;;;;;;18.03;10.00;;;;;;;4.81;100.00;101221.28;698594;28;1048;-63
2023/02/01 00:11:30;;;;;;;20.38;10.77;;;;;;;4.87;100.00;101218.84;697348;28;1170;-63
2023/02/01 00:11:50;;;;;;;22.47;10.90;;;;;;;4.82;100.00;101223.00;697479;28;1467;-62
2023/02/01 00:12:13;;;;;;;21.35;11.05;;;;;;;4.78;100.00;101220.34;694632;28;1583;-62
2023/02/01 00:12:33;;;;;;;21.92;10.88;;;;;;;4.77;100.00;101212.53;695602;28;1338;-62
2023/02/01 00:12:53;;;;;;;18.00;10.27;;;;;;;4.83;100.00;101217.91;692444;28;4302;-62
2023/02/01 00:13:14;;;;;;;19.07;10.30;;;;;;;4.84;100.00;101216.19;690624;28;1372;-61
2023/02/01 00:13:37;;;;;;;19.13;10.35;;;;;;;4.80;100.00;101216.94;689171;28;1204;-62
2023/02/01 00:13:58;;;;;;;20.58;10.52;;;;;;;4.83;100.00;101214.41;689499;28;1319;-63
2023/02/01 00:14:18;;;;;;;18.88;10.40;;;;;;;4.81;100.00;101219.56;692398;28;1311;-63
2023/02/01 00:14:39;;;;;;;19.20;10.80;;;;;;;4.78;100.00;101222.94;692154;28;1160;-62
2023/02/01 00:14:59;;;;;;;22.52;11.13;;;;;;;4.77;100.00;101215.13;694731;28;1297;-61
2023/02/01 00:15:20;;;;;;;20.47;10.70;;;;;;;4.77;100.00;101221.16;695565;28;884;-62
2023/02/01 00:15:40;;;;;;;20.40;10.50;;;;;;;4.88;100.00;101216.28;695230;28;4632;-62
2023/02/01 00:16:12;;;;;;;19.57;10.40;;;;;;;4.86;100.00;101214.50;694258;28;1337;-62
2023/02/01 00:16:32;;;;;;;18.10;10.23;;;;;;;4.83;100.00;101217.91;694678;28;1179;-62
2023/02/01 00:16:52;;;;;;;19.25;10.20;;;;;;;4.77;100.00;101218.56;696379;28;1242;-61
2023/02/01 00:17:13;;;;;;;18.10;10.30;;;;;;;4.74;100.00;101221.09;698373;28;1181;-62
2023/02/01 00:17:33;;;;;;;18.40;10.50;;;;;;;4.71;100.00;101210.66;697272;28;1155;-62
2023/02/01 00:17:55;;;;;;;19.50;10.63;;;;;;;4.84;100.00;101211.00;695052;28;1270;-62
2023/02/01 00:18:15;;;;;;;20.25;10.48;;;;;;;4.79;100.00;101213.47;694344;28;1194;-62
2023/02/01 00:18:36;;;;;;;19.40;10.43;;;;;;;4.77;100.00;101205.63;691804;28;1223;-62
2023/02/01 00:18:59;;;;;;;19.35;10.43;;;;;;;4.76;100.00;101209.06;690367;28;4310;-63
2023/02/01 00:19:20;;;;;;;16.80;10.13;;;;;;;4.84;100.00;101205.81;688325;28;1576;-60
2023/02/01 00:19:40;;;;;;;17.88;10.73;;;;;;;4.80;100.00;101204.84;686817;28;1291;-62
2023/02/01 00:20:01;;;;;;;20.13;11.00;;;;;;;4.77;100.00;101217.72;687935;28;1303;-63
2023/02/01 00:20:21;;;;;;;21.55;11.50;;;;;;;4.76;100.00;101203.91;688313;28;1693;-62
2023/02/01 00:20:46;;;;;;;20.30;10.50;;;;;;;4.73;100.00;101213.28;686542;28;1342;-61
2023/02/01 00:21:07;;;;;;;19.08;10.38;;;;;;;4.72;100.00;101212.41;686797;28;1105;-62
2023/02/01 00:21:27;;;;;;;16.57;10.13;;;;;;;4.70;100.00;101211.47;690647;28;1234;-63
2023/02/01 00:21:48;;;;;;;17.35;10.30;;;;;;;4.69;100.00;101212.31;690946;28;4337;-62
2023/02/01 00:22:08;;;;;;;18.07;10.43;;;;;;;4.80;100.00;101211.75;690041;28;1386;-61
2023/02/01 00:22:28;;;;;;;20.58;10.52;;;;;;;4.76;100.00;101214.25;690501;28;1453;-61
2023/02/01 00:22:49;;;;;;;19.43;10.47;;;;;;;4.75;100.00;101206.44;691887;28;1312;-62
2023/02/01 00:23:09;;;;;;;21.02;10.93;;;;;;;4.73;100.00;101218.47;690343;28;1062;-61
2023/02/01 00:23:34;;;;;;;21.93;10.53;;;;;;;4.85;100.00;101207.56;686752;28;1177;-62
2023/02/01 00:23:55;;;;;;;17.75;10.52;;;;;;;4.83;100.00;101211.81;686764;28;1168;-62
2023/02/01 00:24:15;;;;;;;19.65;10.55;;;;;;;4.83;100.00;101206.63;688057;28;1168;-61
2023/02/01 00:24:35;;;;;;;19.30;10.40;;;;;;;4.82;100.00;101207.47;690957;28;1011;-61
2023/02/01 00:24:56;;;;;;;21.05;10.18;;;;;;;4.82;100.00;101207.47;692791;28;4291;-62
2023/02/01 00:25:16;;;;;;;19.80;10.17;;;;;;;4.84;100.00;101208.41;692888;28;1199;-61
2023/02/01 00:25:36;;;;;;;17.73;9.80;;;;;;;4.85;100.00;101208.44;687672;28;1155;-62
2023/02/01 00:26:00;;;;;;;16.80;10.33;;;;;;;4.89;100.00;101207.69;687116;28;1188;-62
2023/02/01 00:26:32;;;;;;;18.20;10.13;;;;;;;4.90;100.00;101201.69;687698;28;1278;-62
2023/02/01 00:26:52;;;;;;;19.20;9.45;;;;;;;4.86;100.00;101205.03;687688;28;1338;-61
2023/02/01 00:27:17;;;;;;;20.67;10.27;;;;;;;4.82;100.00;101210.97;684185;28;1376;-63
2023/02/01 00:27:37;;;;;;;18.00;9.80;;;;;;;4.81;100.00;101210.91;683129;28;1328;-62
2023/02/01 00:27:59;;;;;;;18.00;9.53;;;;;;;4.92;100.00;101212.09;686730;28;4250;-61
2023/02/01 00:28:19;;;;;;;18.85;9.63;;;;;;;4.88;100.00;101205.06;689284;28;1288;-63
2023/02/01 00:28:40;;;;;;;18.70;9.77;;;;;;;4.83;100.00;101207.53;692764;28;1377;-61
2023/02/01 00:29:02;;;;;;;19.45;8.95;;;;;;;4.81;100.00;101204.00;692219;28;1132;-61
2023/02/01 00:29:23;;;;;;;18.55;9.18;;;;;;;4.82;100.00;101202.28;690455;28;1403;-63
2023/02/01 00:29:44;;;;;;;19.83;9.57;;;;;;;4.83;100.00;101201.47;689927;28;1414;-62
2023/02/01 00:30:05;;;;;;;19.85;9.48;;;;;;;4.84;100.00;101203.22;690029;28;1914;-63
2023/02/01 00:30:26;;;;;;;18.60;9.43;;;;;;;4.84;100.00;101200.63;693638;28;1241;-62
2023/02/01 00:30:46;;;;;;;19.10;9.63;;;;;;;4.83;100.00;101193.69;695250;28;4301;-62
2023/02/01 00:31:07;;;;;;;18.23;9.10;;;;;;;4.87;100.00;101198.13;691805;28;1023;-62
2023/02/01 00:31:27;;;;;;;18.63;9.10;;;;;;;4.91;100.00;101192.19;692406;28;1037;-62
2023/02/01 00:31:50;;;;;;;18.35;9.30;;;;;;;4.93;100.00;101195.72;692253;28;1457;-62
2023/02/01 00:32:11;;;;;;;19.92;9.25;;;;;;;4.88;100.00;101192.97;689791;28;1082;-62
2023/02/01 00:32:32;;;;;;;18.77;9.20;;;;;;;4.85;100.00;101195.50;689415;28;1282;-62
2023/02/01 00:32:52;;;;;;;17.67;9.20;;;;;;;4.85;100.00;101190.31;690851;28;1083;-61
2023/02/01 00:33:12;;;;;;;16.27;9.23;;;;;;;4.93;100.00;101195.72;689431;28;1211;-62
2023/02/01 00:33:33;;;;;;;17.67;9.60;;;;;;;4.88;100.00;101194.69;687935;28;1417;-62
2023/02/01 00:33:54;;;;;;;17.77;9.45;;;;;;;4.83;100.00;101198.88;689603;28;4426;-62
2023/02/01 00:34:16;;;;;;;18.30;9.40;;;;;;;4.89;100.00;101188.69;691934;28;1171;-62
2023/02/01 00:34:36;;;;;;;17.38;9.02;;;;;;;4.98;100.00;101188.91;691783;28;1132;-61
2023/02/01 00:34:57;;;;;;;17.80;8.63;;;;;;;4.95;100.00;101194.03;692459;28;1116;-62
2023/02/01 00:35:17;;;;;;;19.17;9.00;;;;;;;4.90;100.00;101195.59;693284;28;1172;-62
2023/02/01 00:35:37;;;;;;;19.20;9.50;;;;;;;4.94;100.00;101192.25;695310;28;1085;-61
2023/02/01 00:36:05;;;;;;;18.13;9.23;;;;;;;5.00;100.00;101192.44;694830;28;1370;-62
2023/02/01 00:36:26;;;;;;;18.95;9.35;;;;;;;5.03;100.00;101187.34;694687;28;1442;-61
2023/02/01 00:36:46;;;;;;;19.33;9.37;;;;;;;5.00;100.00;101189.84;693527;28;4315;-61
2023/02/01 00:37:07;;;;;;;18.60;9.50;;;;;;;4.95;100.00;101194.03;695264;28;1005;-61
2023/02/01 00:37:27;;;;;;;17.13;9.00;;;;;;;4.90;100.00;101195.59;695344;28;1420;-61
2023/02/01 00:37:47;;;;;;;17.80;9.30;;;;;;;4.91;100.00;101193.06;695175;28;974;-62
2023/02/01 00:38:08;;;;;;;18.43;9.40;;;;;;;4.94;100.00;101194.84;693223;28;1276;-61
2023/02/01 00:38:29;;;;;;;18.42;9.02;;;;;;;4.90;100.00;101195.59;691886;28;1303;-63
2023/02/01 00:38:49;;;;;;;19.00;9.00;;;;;;;4.99;100.00;101187.22;688824;28;5271;-62
2023/02/01 00:39:10;;;;;;;21.03;10.10;;;;;;;5.06;100.00;101177.03;689154;28;946;-62
2023/02/01 00:39:30;;;;;;;18.25;8.30;;;;;;;5.02;100.00;101195.06;690530;28;1179;-61
2023/02/01 00:39:51;;;;;;;16.17;8.27;;;;;;;4.98;100.00;101178.56;686882;28;4287;-64
2023/02/01 00:40:12;;;;;;;18.40;8.47;;;;;;;4.98;100.00;101186.31;687592;28;1020;-68
2023/02/01 00:40:32;;;;;;;19.30;8.75;;;;;;;4.96;100.00;101182.84;688646;28;1391;-62
2023/02/01 00:40:52;;;;;;;18.77;8.98;;;;;;;5.05;100.00;101185.66;690205;28;1156;-62
2023/02/01 00:41:19;;;;;;;18.07;9.10;;;;;;;5.00;100.00;101191.53;686132;28;1085;-63
2023/02/01 00:41:40;;;;;;;18.42;8.70;;;;;;;4.94;100.00;101179.31;686849;28;1299;-62
2023/02/01 00:42:01;;;;;;;16.80;9.07;;;;;;;5.02;100.00;101179.53;687766;28;1368;-62
2023/02/01 00:42:22;;;;;;;18.45;9.02;;;;;;;5.03;100.00;101181.28;690445;28;1176;-63
2023/02/01 00:42:42;;;;;;;17.77;8.25;;;;;;;5.07;100.00;101180.53;691536;28;4319;-62
2023/02/01 00:43:02;;;;;;;19.97;8.87;;;;;;;5.05;100.00;101179.59;692988;28;1359;-64
2023/02/01 00:43:23;;;;;;;16.77;8.63;;;;;;;5.11;100.00;101179.78;693434;28;1260;-62
2023/02/01 00:43:44;;;;;;;16.58;8.50;;;;;;;5.07;100.00;101183.97;690629;28;1777;-64
2023/02/01 00:44:04;;;;;;;16.60;8.27;;;;;;;5.11;100.00;101179.78;690311;28;1512;-63
2023/02/01 00:44:25;;;;;;;18.23;7.80;;;;;;;5.04;100.00;101185.59;687907;28;1224;-62
2023/02/01 00:44:46;;;;;;;20.00;8.57;;;;;;;4.99;100.00;101188.09;690625;28;1362;-63
2023/02/01 00:45:07;;;;;;;17.00;8.60;;;;;;;5.06;100.00;101183.94;689015;28;1145;-62
2023/02/01 00:45:28;;;;;;;17.42;8.75;;;;;;;5.00;100.00;101191.53;689608;28;966;-62
2023/02/01 00:45:48;;;;;;;19.33;8.70;;;;;;;5.02;100.00;101182.97;687211;28;4336;-63
2023/02/01 00:46:09;;;;;;;17.17;8.30;;;;;;;4.99;100.00;101188.09;683601;28;1316;-62
2023/02/01 00:46:30;;;;;;;17.67;8.40;;;;;;;4.95;100.00;101183.66;687231;28;1256;-62
2023/02/01 00:46:50;;;;;;;16.67;7.80;;;;;;;4.91;100.00;101180.09;686973;28;1215;-63
2023/02/01 00:47:11;;;;;;;18.37;9.00;;;;;;;4.97;100.00;101181.09;687082;28;1129;-64
2023/02/01 00:47:31;;;;;;;18.88;9.15;;;;;;;5.01;100.00;101178.66;690449;28;1422;-62
2023/02/01 00:47:52;;;;;;;19.33;8.80;;;;;;;4.93;100.00;101193.13;687684;28;1184;-62
2023/02/01 00:48:12;;;;;;;15.80;7.88;;;;;;;4.95;100.00;101192.28;687058;28;1134;-62
2023/02/01 00:48:33;;;;;;;16.43;7.77;;;;;;;4.98;100.00;101194.09;682177;28;1185;-62
2023/02/01 00:48:54;;;;;;;21.13;9.23;;;;;;;4.98;100.00;101194.09;682194;28;4508;-62
2023/02/01 00:49:15;;;;;;;18.02;8.50;;;;;;;4.99;100.00;101193.28;684888;28;1182;-62
2023/02/01 00:49:35;;;;;;;17.17;8.77;;;;;;;4.99;100.00;101185.50;686477;28;1357;-63
2023/02/01 00:49:56;;;;;;;18.07;8.83;;;;;;;5.01;100.00;101191.63;689870;28;1172;-64
2023/02/01 00:50:16;;;;;;;18.75;8.32;;;;;;;4.95;100.00;101194.03;687740;28;1914;-63
2023/02/01 00:50:42;;;;;;;18.33;8.13;;;;;;;4.99;100.00;101190.69;689811;28;1223;-63
2023/02/01 00:51:14;;;;;;;18.20;8.15;;;;;;;4.91;100.00;101197.38;692337;28;1472;-64
2023/02/01 00:51:34;;;;;;;17.20;7.57;;;;;;;4.98;100.00;101195.81;691973;28;1147;-63
2023/02/01 00:51:55;;;;;;;16.43;7.93;;;;;;;4.94;100.00;101192.25;692648;28;4275;-63
2023/02/01 00:52:15;;;;;;;16.38;7.95;;;;;;;4.91;100.00;101194.78;695241;28;1028;-62
2023/02/01 00:52:36;;;;;;;18.47;8.53;;;;;;;4.91;100.00;101194.78;695288;28;1211;-62
2023/02/01 00:52:56;;;;;;;16.43;7.97;;;;;;;4.97;100.00;101191.47;692669;28;1385;-62
2023/02/01 00:53:17;;;;;;;15.90;8.07;;;;;;;4.94;100.00;101192.25;692926;28;1056;-62
2023/02/01 00:53:37;;;;;;;19.60;8.17;;;;;;;4.96;100.00;101180.25;691236;28;1306;-63
2023/02/01 00:53:57;;;;;;;17.10;7.68;;;;;;;4.98;100.00;101188.03;688767;28;1212;-62
2023/02/01 00:54:18;;;;;;;16.63;7.90;;;;;;;4.95;100.00;101183.66;689338;28;1398;-63
2023/02/01 00:54:38;;;;;;;19.08;8.40;;;;;;;4.93;100.00;101182.75;689689;28;4721;-64
2023/02/01 00:54:59;;;;;;;16.88;7.72;;;;;;;4.93;100.00;101185.34;689685;28;1240;-62
2023/02/01 00:55:19;;;;;;;19.17;7.80;;;;;;;4.94;100.00;101182.78;688670;28;848;-63
2023/02/01 00:55:39;;;;;;;19.23;8.07;;;;;;;5.00;100.00;101176.91;689693;28;1219;-63
2023/02/01 00:56:00;;;;;;;16.73;7.53;;;;;;;4.97;100.00;101171.63;691736;28;1233;-62
2023/02/01 00:56:21;;;;;;;17.90;7.68;;;;;;;4.97;100.00;101173.31;689664;28;1311;-62
2023/02/01 00:56:41;;;;;;;16.30;7.20;;;;;;;4.98;100.00;101167.31;687490;28;1398;-62
2023/02/01 00:57:01;;;;;;;14.00;7.15;;;;;;;4.97;100.00;101163.88;690176;28;1168;-62
2023/02/01 00:57:22;;;;;;;15.77;7.43;;;;;;;4.99;100.00;101169.09;687346;28;1460;-63
2023/02/01 00:57:42;;;;;;;16.13;7.40;;;;;;;4.93;100.00;101164.63;686645;28;4416;-63
2023/02/01 00:58:05;;;;;;;16.23;7.68;;;;;;;4.91;100.00;101161.09;686529;28;1425;-62
2023/02/01 00:58:26;;;;;;;16.42;7.28;;;;;;;4.85;100.00;101161.81;685846;28;1278;-63
2023/02/01 00:58:47;;;;;;;17.35;7.47;;;;;;;4.84;100.00;101170.41;689339;28;1160;-62
2023/02/01 00:59:11;;;;;;;18.58;7.43;;;;;;;4.84;100.00;101166.97;686368;28;1384;-63
2023/02/01 00:59:31;;;;;;;16.00;7.13;;;;;;;4.95;100.00;101163.78;689325;28;1220;-64
2023/02/01 00:59:51;;;;;;;17.43;7.43;;;;;;;4.98;100.00;101152.63;689764;28;1274;-61
2023/02/01 01:00:12;;;;;;;16.03;7.17;;;;;;;4.99;100.00;101158.72;690611;28;1182;-62
2023/02/01 01:00:32;;;;;;;16.63;6.90;;;;;;;5.05;100.00;101159.75;690049;28;1211;-62
2023/02/01 01:01:08;;;;;;;16.40;6.75;;;;;;;5.00;100.00;101158.75;690095;28;4481;-62
2023/02/01 01:01:28;;;;;;;16.02;7.43;;;;;;;4.99;100.00;101159.59;691373;28;1259;-62
2023/02/01 01:01:49;;;;;;;17.77;7.53;;;;;;;5.06;100.00;101158.03;691351;28;1208;-62
2023/02/01 01:02:10;;;;;;;15.47;6.90;;;;;;;5.00;100.00;101156.16;692206;28;1038;-63
2023/02/01 01:02:30;;;;;;;15.80;7.03;;;;;;;5.08;100.00;101156.34;689870;28;1268;-62
2023/02/01 01:02:51;;;;;;;16.17;7.13;;;;;;;5.03;100.00;101155.38;691745;28;1124;-61
2023/02/01 01:03:18;;;;;;;14.93;6.88;;;;;;;4.97;100.00;101153.50;688135;28;1537;-61
2023/02/01 01:03:42;;;;;;;17.73;6.97;;;;;;;5.02;100.00;101149.28;687008;28;4390;-63
2023/02/01 01:04:03;;;;;;;19.15;6.78;;;;;;;4.93;100.00;101152.53;686946;28;1379;-62
2023/02/01 01:04:23;;;;;;;19.83;7.40;;;;;;;4.95;100.00;101155.16;687701;28;1389;-63
2023/02/01 01:04:44;;;;;;;17.13;7.03;;;;;;;4.89;100.00;101152.41;687683;28;1233;-61
2023/02/01 01:05:04;;;;;;;16.48;7.30;;;;;;;4.85;100.00;101145.41;690822;28;1068;-63
2023/02/01 01:05:27;;;;;;;16.20;6.93;;;;;;;4.82;100.00;101159.16;693568;28;1681;-62
2023/02/01 01:05:49;;;;;;;16.73;7.30;;;;;;;4.85;100.00;101145.41;693203;28;975;-61
2023/02/01 01:06:13;;;;;;;16.13;6.80;;;;;;;4.87;100.00;101148.91;688966;28;1474;-62
2023/02/01 01:06:34;;;;;;;15.43;6.70;;;;;;;4.81;100.00;101147.03;684870;28;1240;-61
2023/02/01 01:06:54;;;;;;;15.63;6.77;;;;;;;4.75;100.00;101149.47;687573;28;4494;-62
2023/02/01 01:07:15;;;;;;;15.43;6.90;;;;;;;4.75;100.00;101146.88;688173;28;1199;-61
2023/02/01 01:07:35;;;;;;;16.90;6.67;;;;;;;4.73;100.00;101148.53;687726;28;1354;-62
2023/02/01 01:07:55;;;;;;;15.68;6.78;;;;;;;4.73;100.00;101151.13;687114;28;1173;-61
2023/02/01 01:08:16;;;;;;;14.83;6.50;;;;;;;4.72;100.00;101146.75;690638;28;1260;-62
2023/02/01 01:08:37;;;;;;;15.27;6.90;;;;;;;4.72;100.00;101144.19;692491;28;1372;-62
2023/02/01 01:08:59;;;;;;;17.27;7.03;;;;;;;4.85;100.00;101145.41;690393;28;1392;-61
2023/02/01 01:09:20;;;;;;;16.08;7.18;;;;;;;4.78;100.00;101144.34;689469;28;1721;-62
2023/02/01 01:09:41;;;;;;;14.93;6.93;;;;;;;4.88;100.00;101135.13;687755;28;4337;-62
2023/02/01 01:10:01;;;;;;;15.50;6.40;;;;;;;4.84;100.00;101144.50;687239;28;1319;-62
2023/02/01 01:10:22;;;;;;;15.95;6.88;;;;;;;4.86;100.00;101141.94;687575;28;1918;-64
2023/02/01 01:10:43;;;;;;;15.10;7.37;;;;;;;4.83;100.00;101141.88;687987;28;1192;-62
2023/02/01 01:11:08;;;;;;;16.20;7.03;;;;;;;4.84;100.00;101143.63;689990;28;1275;-67
2023/02/01 01:11:31;;;;;;;19.90;7.07;;;;;;;4.82;100.00;101145.28;691428;28;1183;-62
2023/02/01 01:11:52;;;;;;;16.48;6.50;;;;;;;4.88;100.00;101141.16;691429;28;1223;-61
2023/02/01 01:12:12;;;;;;;15.07;6.30;;;;;;;4.84;100.00;101149.69;690460;28;1528;-62
2023/02/01 01:12:33;;;;;;;13.23;6.03;;;;;;;4.79;100.00;101140.94;692388;28;1277;-62
2023/02/01 01:12:54;;;;;;;15.85;6.65;;;;;;;4.73;100.00;101146.81;688338;28;4664;-60
2023/02/01 01:13:14;;;;;;;15.20;6.90;;;;;;;4.68;100.00;101153.59;684769;28;1440;-61
2023/02/01 01:13:36;;;;;;;17.25;7.05;;;;;;;4.66;100.00;101150.06;685181;28;1321;-62
2023/02/01 01:13:57;;;;;;;17.50;6.43;;;;;;;4.66;100.00;101155.25;687422;28;1211;-61
2023/02/01 01:14:18;;;;;;;17.92;6.78;;;;;;;4.64;100.00;101161.22;686984;28;2003;-61
2023/02/01 01:14:38;;;;;;;14.85;6.80;;;;;;;4.63;100.00;101164.66;688012;28;1433;-63
2023/02/01 01:14:59;;;;;;;16.60;6.70;;;;;;;4.64;100.00;101162.13;688570;28;1451;-62
2023/02/01 01:15:19;;;;;;;16.98;6.30;;;;;;;4.62;100.00;101161.19;689140;28;1144;-61
2023/02/01 01:15:40;;;;;;;14.80;6.00;;;;;;;4.71;100.00;101161.44;688524;28;4366;-61
2023/02/01 01:16:04;;;;;;;14.05;6.20;;;;;;;4.75;100.00;101160.69;689303;28;1371;-62
2023/02/01 01:16:27;;;;;;;17.20;6.53;;;;;;;4.78;100.00;101160.75;688414;28;3723;-61
2023/02/01 01:16:47;;;;;;;18.98;6.40;;;;;;;4.81;100.00;101161.69;689848;28;1270;-61
2023/02/01 01:17:07;;;;;;;18.73;6.20;;;;;;;4.76;100.00;101162.44;690615;28;1084;-61
2023/02/01 01:17:28;;;;;;;14.75;6.10;;;;;;;4.78;100.00;101165.94;692195;28;1148;-61
2023/02/01 01:17:48;;;;;;;15.47;6.03;;;;;;;4.72;100.00;101155.44;691521;28;1077;-61
2023/02/01 01:18:08;;;;;;;14.82;6.05;;;;;;;4.68;100.00;101163.06;692679;28;1134;-61
2023/02/01 01:18:31;;;;;;;13.63;5.73;;;;;;;4.71;100.00;101164.03;694661;28;1183;-62
2023/02/01 01:18:52;;;;;;;16.98;5.93;;;;;;;4.62;100.00;101157.72;694005;28;4350;-62
2023/02/01 01:19:12;;;;;;;17.73;7.03;;;;;;;4.57;100.00;101157.59;697473;28;1431;-62
2023/02/01 01:19:32;;;;;;;14.53;6.17;;;;;;;4.55;100.00;101162.72;695453;28;1333;-62
2023/02/01 01:19:53;;;;;;;14.50;6.20;;;;;;;4.51;100.00;101163.47;692288;28;1172;-62
2023/02/01 01:20:13;;;;;;;15.47;6.30;;;;;;;4.58;100.00;101157.66;692227;28;1131;-62
2023/02/01 01:20:35;;;;;;;15.50;6.77;;;;;;;4.60;100.00;101165.47;691509;28;1291;-61
2023/02/01 01:20:57;;;;;;;14.20;6.47;;;;;;;4.60;100.00;101168.03;691961;28;1413;-61
2023/02/01 01:21:18;;;;;;;17.30;5.82;;;;;;;4.58;100.00;101168.00;689594;28;1373;-62
2023/02/01 01:21:38;;;;;;;16.73;6.05;;;;;;;4.55;100.00;101167.91;691098;28;4571;-62
2023/02/01 01:21:58;;;;;;;13.57;5.78;;;;;;;4.57;100.00;101165.38;695029;28;1013;-63
2023/02/01 01:22:19;;;;;;;12.83;5.60;;;;;;;4.60;100.00;101170.63;689732;28;1196;-62
2023/02/01 01:22:40;;;;;;;15.57;5.70;;;;;;;4.63;100.00;101172.44;689414;28;1263;-62
2023/02/01 01:23:01;;;;;;;15.07;5.85;;;;;;;4.63;100.00;101168.13;689093;28;1405;-62
2023/02/01 01:23:21;;;;;;;17.63;6.20;;;;;;;4.58;100.00;101168.00;689997;28;1315;-62
2023/02/01 01:23:43;;;;;;;15.18;5.70;;;;;;;4.65;100.00;101163.84;690392;28;1350;-62
2023/02/01 01:24:04;;;;;;;12.32;5.20;;;;;;;4.64;100.00;101164.72;690534;28;1114;-61
2023/02/01 01:24:24;;;;;;;18.23;5.80;;;;;;;4.61;100.00;101167.22;695299;28;1301;-62
2023/02/01 01:24:45;;;;;;;16.17;5.73;;;;;;;4.62;100.00;101171.53;692922;28;4415;-62
2023/02/01 01:25:05;;;;;;;12.27;5.60;;;;;;;4.57;100.00;101167.97;692491;28;1032;-62
2023/02/01 01:25:26;;;;;;;12.60;5.60;;;;;;;4.55;100.00;101167.03;695731;28;1155;-61
2023/02/01 01:25:46;;;;;;;13.77;5.45;;;;;;;4.51;100.00;101171.22;694133;28;1309;-61
2023/02/01 01:26:14;;;;;;;14.90;5.90;;;;;;;4.57;100.00;101166.25;691723;28;1251;-62
2023/02/01 01:26:34;;;;;;;16.38;5.45;;;;;;;4.54;100.00;101168.75;692993;28;1231;-61
2023/02/01 01:26:54;;;;;;;14.87;5.77;;;;;;;4.54;100.00;101162.69;691014;28;1258;-61
2023/02/01 01:27:15;;;;;;;13.43;5.55;;;;;;;4.53;100.00;101163.53;692629;28;1231;-62
2023/02/01 01:27:35;;;;;;;12.17;5.40;;;;;;;4.50;100.00;101169.50;692836;28;1184;-62
2023/02/01 01:27:56;;;;;;;13.68;5.45;;;;;;;4.48;100.00;101173.75;688867;28;4347;-62
2023/02/01 01:28:16;;;;;;;13.40;5.37;;;;;;;4.43;100.00;101168.44;690298;28;1152;-61
2023/02/01 01:28:36;;;;;;;16.52;5.82;;;;;;;4.48;100.00;101170.28;690379;28;1164;-61
2023/02/01 01:28:58;;;;;;;16.47;5.40;;;;;;;4.47;100.00;101176.28;693965;28;1158;-62
2023/02/01 01:29:18;;;;;;;14.88;5.43;;;;;;;4.43;100.00;101177.91;694445;28;1290;-66
2023/02/01 01:29:39;;;;;;;11.60;5.30;;;;;;;4.45;100.00;101180.56;692970;28;1309;-61
2023/02/01 01:29:59;;;;;;;12.75;5.45;;;;;;;4.51;100.00;101185.91;694069;28;1194;-62
2023/02/01 01:30:19;;;;;;;14.00;5.43;;;;;;;4.46;100.00;101187.47;694929;28;1921;-62
2023/02/01 01:30:40;;;;;;;15.97;5.30;;;;;;;4.41;100.00;101185.63;693701;28;4400;-62
2023/02/01 01:31:00;;;;;;;16.10;5.70;;;;;;;4.41;100.00;101195.97;693011;28;1333;-61
2023/02/01 01:31:21;;;;;;;15.23;5.63;;;;;;;4.42;100.00;101196.88;690154;28;1761;-61
2023/02/01 01:31:41;;;;;;;14.83;5.53;;;;;;;4.46;100.00;101192.66;689002;28;1302;-62
2023/02/01 01:32:02;;;;;;;14.63;5.68;;;;;;;4.52;100.00;101192.84;688067;28;1366;-61
2023/02/01 01:32:22;;;;;;;13.70;5.23;;;;;;;4.47;100.00;101191.81;687778;28;1479;-62
2023/02/01 01:32:43;;;;;;;14.20;4.93;;;;;;;4.41;100.00;101193.41;687637;28;1354;-61
2023/02/01 01:33:03;;;;;;;14.87;5.10;;;;;;;4.38;100.00;101195.91;688028;28;1335;-62
2023/02/01 01:33:23;;;;;;;14.52;4.85;;;;;;;4.38;100.00;101190.72;687942;28;1048;-62
2023/02/01 01:33:47;;;;;;;13.67;5.40;;;;;;;4.50;100.00;101190.22;686917;28;4255;-62
2023/02/01 01:34:08;;;;;;;16.05;5.78;;;;;;;4.46;100.00;101190.06;686440;28;1033;-62
2023/02/01 01:34:28;;;;;;;15.25;5.80;;;;;;;4.41;100.00;101190.81;688484;28;987;-62
2023/02/01 01:34:49;;;;;;;15.30;5.27;;;;;;;4.48;100.00;101185.81;685781;28;1201;-61
2023/02/01 01:35:10;;;;;;;15.57;5.25;;;;;;;4.45;100.00;101186.59;687168;28;1153;-62
2023/02/01 01:35:31;;;;;;;14.80;5.28;;;;;;;4.39;100.00;101191.63;686175;28;1003;-62
2023/02/01 01:35:52;;;;;;;14.63;4.88;;;;;;;4.38;100.00;101187.28;687014;28;1208;-62
2023/02/01 01:36:12;;;;;;;14.90;5.00;;;;;;;4.41;100.00;101190.81;686622;28;1226;-61
2023/02/01 01:36:33;;;;;;;15.98;5.45;;;;;;;4.38;100.00;101190.72;687535;28;1251;-61
2023/02/01 01:36:53;;;;;;;14.17;5.53;;;;;;;4.36;100.00;101182.06;691311;28;4328;-61
2023/02/01 01:37:13;;;;;;;16.83;5.10;;;;;;;4.38;100.00;101195.03;692391;28;1217;-61
2023/02/01 01:37:35;;;;;;;17.10;5.33;;;;;;;4.41;100.00;101184.75;691938;28;1320;-61
2023/02/01 01:37:55;;;;;;;15.98;5.18;;;;;;;4.34;100.00;101188.88;691955;28;1161;-63
2023/02/01 01:38:16;;;;;;;13.73;4.82;;;;;;;4.34;100.00;101193.19;687156;28;1541;-61
2023/02/01 01:38:36;;;;;;;14.60;5.30;;;;;;;4.33;100.00;101189.72;686538;28;1130;-61
2023/02/01 01:38:57;;;;;;;13.27;4.93;;;;;;;4.32;100.00;101187.97;688617;28;5085;-61